Richmond, UT (84333)

10:52 AM MDT on October 25, 2014 (GMT -0600)
Richmond 1436A | Change Station
CLOSE
Current Station
Personal Weather Station
Location: Richmond, UT
Elevation: 4551 ft
Nearby Weather Stations

Elev 4551 ft 41.94 °N, 111.81 °W | Updated 2 minutes ago

Clear
Clear
53.7 °F
Feels Like 53.7 °F
N
0.0
Wind Variable Wind from NW
Gusts 0.0 mph

Today
High -- | Low -- °F
--% Chance of Precip.
Yesterday
High -- | Low -- °F
Precip. -- in
7:51 AM 6:30 PM
Waxing Crescent, 3% visible
Pressure 30.06 in
Visibility 10.0 miles
Clouds Clear
Dew Point 39 °F
Humidity 57%
Rainfall 0.00 in
Snow Depth 0 in
UV 1 out of 12
Pollen 2.00 out of 12
PM2.5 Good
Flu Activity Sporadic
METAR KLGU 251551Z AUTO 00000KT 10SM CLR 08/03 A3009 RMK AO2 SLP178 T00780028 TSNO

More Conditions Fewer Conditions

Pressure 30.06 in
Visibility 10.0 miles
Clouds Clear
Dew Point 39 °F
Humidity 57%
Rainfall 0.00 in
Snow Depth 0 in
UV 1 out of 12
Pollen 2.00 out of 12
PM2.5 Good
Flu Activity Sporadic
METAR KLGU 251551Z AUTO 00000KT 10SM CLR 08/03 A3009 RMK AO2 SLP178 T00780028 TSNO

More Conditions Fewer Conditions

10-Day Weather Forecast

Almanac

Astronomy

Oct. 25, 2014 Rise Set
Actual Time 7:51 AM MDT 6:30 PM MDT
Civil Twilight 7:22 AM MDT 6:59 PM MDT
Nautical Twilight 6:50 AM MDT 7:31 PM MDT
Astronomical Twilight 6:17 AM MDT 8:03 PM MDT
Moon 9:35 AM MDT 7:55 PM MDT
Length of Visible Light 11h 36m
Length of Day
10h 39m
Tomorrow will be 2m 36s shorter.
Waxing Crescent, 3% of the Moon is Illuminated
Today
Waxing Crescent
Oct 30
First Quarter
Nov 6
Full
Nov 14
Last Quarter
Nov 22
New

Today's Extremes

State Highs State Lows

Community

WunderPhotos

Upload Photos

1,764,901 photos uploaded!

Nearby

Air Quality

  Air Quality AQ Index Pollutant
Yesterday Good
PM2.5
Current Good
PM2.5

Snow Depth

Station Depth Elevation
Temple Fork 0 in 7406 ft
Bug Lake 0 in 7950 ft
Little Bear 0 in 6550 ft
Farmington 1 in 8000 ft
Parrish Creek 0 in 7740 ft

Earthquake Activity

City Distance Mag. Time & Date
No recent earthquake activity has been reported nearby.
Minimum magnitude displayed is 2.5.

Coastal Water Temperatures

Place Temperature
No Stations Reporting

Nearby Weather Stations